No2 Toa Maru — JD2163 — position and weather

sailwx.info

Track history (hours):
 
Tides and Currents Weather Stations Pressure Air Temp Water Temp Dewpoint Dewpoint Depression Visibility Wind Speed Wind Dir Waves Ship Positions

No2 Toa Maru

Last reported at 2018-Jan-18 06:00 UTC. Time now 2018-Jan-18 06:17 UTC.
Position N 35°10' E 139°47'.

Length 40 m; draft 2.8 m.

Type: Tug. MMSI: 431101119.

Date/timePositionNaut miles runAvg speedWind from/ knotsBaromVisibWave heightAir tempDewpointWater temp
2018-Jan-18 06:00N 35°10' E 139°47'3 5.3
2018-Jan-18 05:30N 35°12' E 139°45'2 4.2
2018-Jan-18 05:00N 35°13' E 139°43'0 0.0
2018-Jan-18 04:29N 35°13' E 139°43'3 5.4
2018-Jan-18 04:00N 35°11' E 139°45'1 1.4
2018-Jan-18 03:30N 35°11' E 139°46'3 6.4
2018-Jan-18 03:00N 35°13' E 139°43'0 0.0
2018-Jan-18 02:30N 35°13' E 139°43'0 0.0
2018-Jan-18 02:00N 35°13' E 139°43'0 0.0
2018-Jan-18 01:25N 35°13' E 139°43'1 2.2
2018-Jan-18 01:00N 35°13' E 139°44'0 0.5
2018-Jan-18 00:01N 35°12' E 139°44'113.1
2018-Jan-17 23:57N 35°13' E 139°44'  
2018-Jan-12 15:00N 35°14' E 139°45'2 3.5
2018-Jan-12 14:30N 35°13' E 139°43'0 0.0
2018-Jan-12 14:00N 35°13' E 139°43'0 0.0
2018-Jan-12 13:31N 35°13' E 139°43'0 0.0
2018-Jan-12 13:00N 35°13' E 139°43'0 0.0
2018-Jan-12 12:30N 35°13' E 139°43'0 0.0
2018-Jan-12 12:01N 35°13' E 139°43'2 4.2
2018-Jan-12 11:31N 35°12' E 139°45'3 5.1
2018-Jan-12 11:00N 35°10' E 139°47'5 9.1
2018-Jan-12 10:30N 35°13' E 139°43'2 3.2
2018-Jan-12 10:00N 35°13' E 139°45'1 1.8
2018-Jan-12 09:31N 35°14' E 139°45'2 3.6
2018-Jan-12 09:00N 35°13' E 139°43'0 0.0
2018-Jan-12 08:31N 35°13' E 139°43'2 4.5
2018-Jan-12 08:00N 35°12' E 139°45'2 3.5
2018-Jan-12 07:30N 35°10' E 139°47'4 8.2
2018-Jan-12 07:01N 35°13' E 139°43'0 0.0
2018-Jan-12 06:31N 35°13' E 139°43'2 4.9
2018-Jan-12 06:01N 35°13' E 139°46'1 2.6
2018-Jan-12 05:30N 35°13' E 139°45'1 2.3
2018-Jan-12 05:00N 35°13' E 139°43'0 0.0
2018-Jan-12 04:30N 35°13' E 139°43'0 0.0
2018-Jan-12 04:00N 35°13' E 139°43'3 5.7
2018-Jan-12 03:30N 35°12' E 139°46'2 3.9
2018-Jan-12 03:00N 35°14' E 139°46'2 4.1
2018-Jan-12 02:30N 35°13' E 139°43'0 0.0
2018-Jan-12 02:00N 35°13' E 139°43'0 0.0
2018-Jan-12 01:30N 35°13' E 139°43'0 0.0
2018-Jan-12 01:00N 35°13' E 139°43'1 2.6
2018-Jan-12 00:30N 35°13' E 139°45'4 7.3
2018-Jan-12 00:00N 35°09' E 139°46'4 7.8
2018-Jan-11 23:30N 35°13' E 139°44'1 1.9
2018-Jan-11 23:00N 35°13' E 139°43'3 6.9
2018-Jan-11 22:30N 35°11' E 139°46'1 2.3
2018-Jan-11 22:00N 35°10' E 139°47'3 6.3
2018-Jan-11 21:30N 35°13' E 139°45'1 2.6
2018-Jan-11 20:58N 35°13' E 139°43'510.0
2018-Jan-11 20:30N 35°09' E 139°46'2 3.2
2018-Jan-11 20:00N 35°11' E 139°47'4 8.2
2018-Jan-11 19:30N 35°13' E 139°43'0 0.1
2018-Jan-11 19:00N 35°13' E 139°43'0 0.0
2018-Jan-11 18:25N 35°13' E 139°43'2 5.9
2018-Jan-11 18:00N 35°13' E 139°46'1 2.0
2018-Jan-11 17:30N 35°14' E 139°46'2 4.1
2018-Jan-11 17:00N 35°13' E 139°43'0 0.0
2018-Jan-11 16:30N 35°13' E 139°43'0 0.0
2018-Jan-11 16:00N 35°13' E 139°43'0 0.0
2018-Jan-11 15:30N 35°13' E 139°43'0 0.0
2018-Jan-11 15:00N 35°13' E 139°43'0 0.0
2018-Jan-11 14:30N 35°13' E 139°43'0 0.0
2018-Jan-11 14:00N 35°13' E 139°43'0 0.0
2018-Jan-11 13:30N 35°13' E 139°43'0 0.0
2018-Jan-11 13:00N 35°13' E 139°43'3 5.2
2018-Jan-11 12:30N 35°15' E 139°46'3 6.0
2018-Jan-11 12:00N 35°17' E 139°44'2 4.8
2018-Jan-11 11:31N 35°15' E 139°45'3 5.3
2018-Jan-11 11:00N 35°13' E 139°43'0 0.1
2018-Jan-11 10:30N 35°13' E 139°43'2 4.2
2018-Jan-11 10:00N 35°13' E 139°46'1 1.2
2018-Jan-11 09:30N 35°13' E 139°45'2 3.1
2018-Jan-11 08:59N 35°13' E 139°43'0 0.0
2018-Jan-11 08:30N 35°13' E 139°43'0 0.0
2018-Jan-11 07:59N 35°13' E 139°43'0 0.0
2018-Jan-11 07:30N 35°13' E 139°43'0 0.0
2018-Jan-11 07:00N 35°13' E 139°43'0 0.0
2018-Jan-11 06:29N 35°13' E 139°43'0 0.0
2018-Jan-11 06:00N 35°13' E 139°43'0 0.0
2018-Jan-11 05:29N 35°13' E 139°43'0 0.0
2018-Jan-11 05:00N 35°13' E 139°43'0 0.8
2018-Jan-11 04:30N 35°13' E 139°44'2 4.8
2018-Jan-11 04:01N 35°12' E 139°46'2 3.1
2018-Jan-11 03:30N 35°13' E 139°45'1 2.6
2018-Jan-11 02:58N 35°13' E 139°43'0 0.0
2018-Jan-11 02:30N 35°13' E 139°43'0 0.0
2018-Jan-11 02:00N 35°13' E 139°43'0 0.0
2018-Jan-11 01:28N 35°13' E 139°43'1 2.8
2018-Jan-11 01:00N 35°13' E 139°45'1 2.4
2018-Jan-11 00:30N 35°14' E 139°46'2 4.2
2018-Jan-11 00:00N 35°13' E 139°43'0 0.0
2018-Jan-10 23:28N 35°13' E 139°43'2 4.6
2018-Jan-10 23:00N 35°13' E 139°46'1 1.6
2018-Jan-10 22:30N 35°13' E 139°46'4 7.7
2018-Jan-10 22:00N 35°10' E 139°47'3 6.7
2018-Jan-10 21:30N 35°12' E 139°44'1 2.8
2018-Jan-10 21:00N 35°13' E 139°43'0 0.0
2018-Jan-10 20:30N 35°13' E 139°43'0 0.0
2018-Jan-10 20:00N 35°13' E 139°43'0 0.0
2018-Jan-10 19:30N 35°13' E 139°43'0 0.0
2018-Jan-10 19:00N 35°13' E 139°43'2 4.8
2018-Jan-10 18:30N 35°13' E 139°46'1 2.2
2018-Jan-10 18:01N 35°13' E 139°45'1 2.9
2018-Jan-10 17:30N 35°13' E 139°43'0 0.0
2018-Jan-10 17:01N 35°13' E 139°43'0 0.0
2018-Jan-10 16:30N 35°13' E 139°43'0 0.0
2018-Jan-10 16:01N 35°13' E 139°43'0 0.0
2018-Jan-10 15:30N 35°13' E 139°43'0 0.0
2018-Jan-10 15:00N 35°13' E 139°43'0 0.0
2018-Jan-10 14:30N 35°13' E 139°43'0 0.0
2018-Jan-10 14:00N 35°13' E 139°43'0 0.0
2018-Jan-10 13:31N 35°13' E 139°43'0 0.0
2018-Jan-10 13:00N 35°13' E 139°43'0 0.0
2018-Jan-10 12:30N 35°13' E 139°43'0 0.0
2018-Jan-10 12:01N 35°13' E 139°43'0 0.0
2018-Jan-10 11:30N 35°13' E 139°43'0 0.1
2018-Jan-10 11:00N 35°13' E 139°43'2 3.8
2018-Jan-10 10:30N 35°13' E 139°46'2 3.9
2018-Jan-10 10:00N 35°13' E 139°43'0 0.1
2018-Jan-10 09:30N 35°13' E 139°43'0 0.0
2018-Jan-10 09:01N 35°13' E 139°43'0 0.0
2018-Jan-10 08:31N 35°13' E 139°43'0 0.0
2018-Jan-10 08:01N 35°13' E 139°43'0 0.0
2018-Jan-10 07:30N 35°13' E 139°43'0 0.0
2018-Jan-10 07:01N 35°13' E 139°43'0 0.0
2018-Jan-10 06:30N 35°13' E 139°43'0 0.0
2018-Jan-10 06:01N 35°13' E 139°43'0 0.0
2018-Jan-10 05:30N 35°13' E 139°43'0 0.0
2018-Jan-10 05:00N 35°13' E 139°43'1 2.4
2018-Jan-10 04:30N 35°13' E 139°45'4 7.3
2018-Jan-10 04:00N 35°17' E 139°45'4 8.4
2018-Jan-10 03:30N 35°13' E 139°43'0 0.0
2018-Jan-10 03:01N 35°13' E 139°43'0 0.0
2018-Jan-10 02:31N 35°13' E 139°43'0 0.0
2018-Jan-10 02:00N 35°13' E 139°43'0 0.0
2018-Jan-10 01:30N 35°13' E 139°43'0 0.0
2018-Jan-10 01:00N 35°13' E 139°43'1 1.1
2018-Jan-10 00:30N 35°13' E 139°44'4 8.0
2018-Jan-10 00:01N 35°10' E 139°47'4 7.2
2018-Jan-09 23:31N 35°13' E 139°44'1 1.9
2018-Jan-09 23:01N 35°13' E 139°43'0 0.2
2018-Jan-09 22:30N 35°13' E 139°43'2 4.3
2018-Jan-09 22:00N 35°14' E 139°46'2 4.3
2018-Jan-09 21:31N 35°13' E 139°43'0 0.5
2018-Jan-09 21:00N 35°13' E 139°43'0 0.9
2018-Jan-09 20:31N 35°13' E 139°43'2 3.7
2018-Jan-09 20:00N 35°13' E 139°46'4 8.5
2018-Jan-09 19:30N 35°09' E 139°47'3 5.4
2018-Jan-09 19:01N 35°11' E 139°45'2 4.9
2018-Jan-09 18:30N 35°13' E 139°43'0 0.4
2018-Jan-09 18:00N 35°13' E 139°43'0 0.0
2018-Jan-09 17:30N 35°13' E 139°43'0 0.0
2018-Jan-09 17:01N 35°13' E 139°43'0 0.0
2018-Jan-09 16:31N 35°13' E 139°43'0 0.0
2018-Jan-09 16:00N 35°13' E 139°43'0 0.0
2018-Jan-09 15:30N 35°13' E 139°43'0 0.0
2018-Jan-09 15:01N 35°13' E 139°43'0 0.0
2018-Jan-09 14:30N 35°13' E 139°43'0 0.0
2018-Jan-09 14:00N 35°13' E 139°43'0 0.0
2018-Jan-09 13:30N 35°13' E 139°43'0 0.0
2018-Jan-09 13:00N 35°13' E 139°43'0 0.0
2018-Jan-09 12:29N 35°13' E 139°43'0 0.0
2018-Jan-09 12:01N 35°13' E 139°43'0 0.0
2018-Jan-09 11:29N 35°13' E 139°43'0 0.0
2018-Jan-09 11:00N 35°13' E 139°43'0 0.0
2018-Jan-09 10:30N 35°13' E 139°43'0 0.0
2018-Jan-09 10:00N 35°13' E 139°43'0 0.0
2018-Jan-09 09:30N 35°13' E 139°43'0 0.0
2018-Jan-09 09:01N 35°13' E 139°43'0 0.0
2018-Jan-09 08:29N 35°13' E 139°43'0 0.0
2018-Jan-09 08:00N 35°13' E 139°43'0 0.0
2018-Jan-09 07:30N 35°13' E 139°43'0 0.0
2018-Jan-09 07:00N 35°13' E 139°43'0 0.0
2018-Jan-09 06:30N 35°13' E 139°43'0 0.0
2018-Jan-09 06:00N 35°13' E 139°43'0 0.0
2018-Jan-09 05:31N 35°13' E 139°43'0 0.0
2018-Jan-09 05:00N 35°13' E 139°43'0 0.0
2018-Jan-09 04:30N 35°13' E 139°43'0 0.0
2018-Jan-09 03:58N 35°13' E 139°43'0 0.0
2018-Jan-09 03:30N 35°13' E 139°43'0 0.0
2018-Jan-09 03:00N 35°13' E 139°43'0 0.0
2018-Jan-09 02:31N 35°13' E 139°43'0 0.0
2018-Jan-09 02:00N 35°13' E 139°43'0 0.0
2018-Jan-09 01:30N 35°13' E 139°43'0 0.0
2018-Jan-09 01:00N 35°13' E 139°43'0 0.0
2018-Jan-09 00:30N 35°13' E 139°43'0 0.1
2018-Jan-09 00:00N 35°13' E 139°43'0 0.0
2018-Jan-08 23:30N 35°13' E 139°43'0 0.0
2018-Jan-08 23:00N 35°13' E 139°43'0 0.0
2018-Jan-08 22:30N 35°13' E 139°43'0 0.0
2018-Jan-08 22:00N 35°13' E 139°43'2 4.3
2018-Jan-08 21:30N 35°12' E 139°45'2 3.3
2018-Jan-08 21:00N 35°11' E 139°46'3 6.9
2018-Jan-08 20:30N 35°13' E 139°43'0 0.0
2018-Jan-08 20:00N 35°13' E 139°43'3 7.0
2018-Jan-08 19:31N 35°11' E 139°46'1 1.1
2018-Jan-08 19:00N 35°11' E 139°46'3 6.0
2018-Jan-08 18:30N 35°13' E 139°43'0 0.1
2018-Jan-08 18:00N 35°13' E 139°43'0 0.0
2018-Jan-08 17:30N 35°13' E 139°43'0 0.1
2018-Jan-08 17:00N 35°13' E 139°43'2 3.8
2018-Jan-08 16:30N 35°13' E 139°45'2 3.3
2018-Jan-08 16:00N 35°13' E 139°43'0 0.6
2018-Jan-08 15:30N 35°13' E 139°43'0 0.0
2018-Jan-08 15:00N 35°13' E 139°43'0 0.0
2018-Jan-08 14:30N 35°13' E 139°43'0 0.0
2018-Jan-08 14:00N 35°13' E 139°43'0 0.0
2018-Jan-08 13:30N 35°13' E 139°43'0 0.0
2018-Jan-08 13:00N 35°13' E 139°43'0 0.0
2018-Jan-08 12:30N 35°13' E 139°43'1 3.0
2018-Jan-08 12:00N 35°13' E 139°45'1 3.0
2018-Jan-08 11:30N 35°14' E 139°45'2 4.1
2018-Jan-08 11:00N 35°13' E 139°43'0 0.0
2018-Jan-08 10:30N 35°13' E 139°43'0 0.0
2018-Jan-08 10:00N 35°13' E 139°43'0 0.0
2018-Jan-08 09:30N 35°13' E 139°43'0 0.0
2018-Jan-08 09:00N 35°13' E 139°43'0 0.0
2018-Jan-08 08:30N 35°13' E 139°43'0 0.0
2018-Jan-08 08:00N 35°13' E 139°43'2 4.3
2018-Jan-08 07:30N 35°13' E 139°46'0 0.4
2018-Jan-08 07:00N 35°13' E 139°46'3 6.4
2018-Jan-08 06:30N 35°10' E 139°47'4 9.0
2018-Jan-08 06:00N 35°13' E 139°43'  
Track history (hours):
 
Tides and Currents Weather Stations Pressure Air Temp Water Temp Dewpoint Dewpoint Depression Visibility Wind Speed Wind Dir Waves Ship Positions

No2 Toa Maru

Last reported at 2018-Jan-18 06:00 UTC. Time now 2018-Jan-18 06:17 UTC.
Position N 35°10' E 139°47'.

Length 40 m; draft 2.8 m.

Type: Tug. MMSI: 431101119.

Date/timePositionNaut miles runAvg speedWind from/ knotsBaromVisibWave heightAir tempDewpointWater temp
2018-Jan-18 06:00N 35°10' E 139°47'3 5.3
2018-Jan-18 05:30N 35°12' E 139°45'2 4.2
2018-Jan-18 05:00N 35°13' E 139°43'0 0.0
2018-Jan-18 04:29N 35°13' E 139°43'3 5.4
2018-Jan-18 04:00N 35°11' E 139°45'1 1.4
2018-Jan-18 03:30N 35°11' E 139°46'3 6.4
2018-Jan-18 03:00N 35°13' E 139°43'0 0.0
2018-Jan-18 02:30N 35°13' E 139°43'0 0.0
2018-Jan-18 02:00N 35°13' E 139°43'0 0.0
2018-Jan-18 01:25N 35°13' E 139°43'1 2.2
2018-Jan-18 01:00N 35°13' E 139°44'0 0.5
2018-Jan-18 00:01N 35°12' E 139°44'113.1
2018-Jan-17 23:57N 35°13' E 139°44'  
2018-Jan-12 15:00N 35°14' E 139°45'2 3.5
2018-Jan-12 14:30N 35°13' E 139°43'0 0.0
2018-Jan-12 14:00N 35°13' E 139°43'0 0.0
2018-Jan-12 13:31N 35°13' E 139°43'0 0.0
2018-Jan-12 13:00N 35°13' E 139°43'0 0.0
2018-Jan-12 12:30N 35°13' E 139°43'0 0.0
2018-Jan-12 12:01N 35°13' E 139°43'2 4.2
2018-Jan-12 11:31N 35°12' E 139°45'3 5.1
2018-Jan-12 11:00N 35°10' E 139°47'5 9.1
2018-Jan-12 10:30N 35°13' E 139°43'2 3.2
2018-Jan-12 10:00N 35°13' E 139°45'1 1.8
2018-Jan-12 09:31N 35°14' E 139°45'2 3.6
2018-Jan-12 09:00N 35°13' E 139°43'0 0.0
2018-Jan-12 08:31N 35°13' E 139°43'2 4.5
2018-Jan-12 08:00N 35°12' E 139°45'2 3.5
2018-Jan-12 07:30N 35°10' E 139°47'4 8.2
2018-Jan-12 07:01N 35°13' E 139°43'0 0.0
2018-Jan-12 06:31N 35°13' E 139°43'2 4.9
2018-Jan-12 06:01N 35°13' E 139°46'1 2.6
2018-Jan-12 05:30N 35°13' E 139°45'1 2.3
2018-Jan-12 05:00N 35°13' E 139°43'0 0.0
2018-Jan-12 04:30N 35°13' E 139°43'0 0.0
2018-Jan-12 04:00N 35°13' E 139°43'3 5.7
2018-Jan-12 03:30N 35°12' E 139°46'2 3.9
2018-Jan-12 03:00N 35°14' E 139°46'2 4.1
2018-Jan-12 02:30N 35°13' E 139°43'0 0.0
2018-Jan-12 02:00N 35°13' E 139°43'0 0.0
2018-Jan-12 01:30N 35°13' E 139°43'0 0.0
2018-Jan-12 01:00N 35°13' E 139°43'1 2.6
2018-Jan-12 00:30N 35°13' E 139°45'4 7.3
2018-Jan-12 00:00N 35°09' E 139°46'4 7.8
2018-Jan-11 23:30N 35°13' E 139°44'1 1.9
2018-Jan-11 23:00N 35°13' E 139°43'3 6.9
2018-Jan-11 22:30N 35°11' E 139°46'1 2.3
2018-Jan-11 22:00N 35°10' E 139°47'3 6.3
2018-Jan-11 21:30N 35°13' E 139°45'1 2.6
2018-Jan-11 20:58N 35°13' E 139°43'510.0
2018-Jan-11 20:30N 35°09' E 139°46'2 3.2
2018-Jan-11 20:00N 35°11' E 139°47'4 8.2
2018-Jan-11 19:30N 35°13' E 139°43'0 0.1
2018-Jan-11 19:00N 35°13' E 139°43'0 0.0
2018-Jan-11 18:25N 35°13' E 139°43'2 5.9
2018-Jan-11 18:00N 35°13' E 139°46'1 2.0
2018-Jan-11 17:30N 35°14' E 139°46'2 4.1
2018-Jan-11 17:00N 35°13' E 139°43'0 0.0
2018-Jan-11 16:30N 35°13' E 139°43'0 0.0
2018-Jan-11 16:00N 35°13' E 139°43'0 0.0
2018-Jan-11 15:30N 35°13' E 139°43'0 0.0
2018-Jan-11 15:00N 35°13' E 139°43'0 0.0
2018-Jan-11 14:30N 35°13' E 139°43'0 0.0
2018-Jan-11 14:00N 35°13' E 139°43'0 0.0
2018-Jan-11 13:30N 35°13' E 139°43'0 0.0
2018-Jan-11 13:00N 35°13' E 139°43'3 5.2
2018-Jan-11 12:30N 35°15' E 139°46'3 6.0
2018-Jan-11 12:00N 35°17' E 139°44'2 4.8
2018-Jan-11 11:31N 35°15' E 139°45'3 5.3
2018-Jan-11 11:00N 35°13' E 139°43'0 0.1
2018-Jan-11 10:30N 35°13' E 139°43'2 4.2
2018-Jan-11 10:00N 35°13' E 139°46'1 1.2
2018-Jan-11 09:30N 35°13' E 139°45'2 3.1
2018-Jan-11 08:59N 35°13' E 139°43'0 0.0
2018-Jan-11 08:30N 35°13' E 139°43'0 0.0
2018-Jan-11 07:59N 35°13' E 139°43'0 0.0
2018-Jan-11 07:30N 35°13' E 139°43'0 0.0
2018-Jan-11 07:00N 35°13' E 139°43'0 0.0
2018-Jan-11 06:29N 35°13' E 139°43'0 0.0
2018-Jan-11 06:00N 35°13' E 139°43'0 0.0
2018-Jan-11 05:29N 35°13' E 139°43'0 0.0
2018-Jan-11 05:00N 35°13' E 139°43'0 0.8
2018-Jan-11 04:30N 35°13' E 139°44'2 4.8
2018-Jan-11 04:01N 35°12' E 139°46'2 3.1
2018-Jan-11 03:30N 35°13' E 139°45'1 2.6
2018-Jan-11 02:58N 35°13' E 139°43'0 0.0
2018-Jan-11 02:30N 35°13' E 139°43'0 0.0
2018-Jan-11 02:00N 35°13' E 139°43'0 0.0
2018-Jan-11 01:28N 35°13' E 139°43'1 2.8
2018-Jan-11 01:00N 35°13' E 139°45'1 2.4
2018-Jan-11 00:30N 35°14' E 139°46'2 4.2
2018-Jan-11 00:00N 35°13' E 139°43'0 0.0
2018-Jan-10 23:28N 35°13' E 139°43'2 4.6
2018-Jan-10 23:00N 35°13' E 139°46'1 1.6
2018-Jan-10 22:30N 35°13' E 139°46'4 7.7
2018-Jan-10 22:00N 35°10' E 139°47'3 6.7
2018-Jan-10 21:30N 35°12' E 139°44'1 2.8
2018-Jan-10 21:00N 35°13' E 139°43'0 0.0
2018-Jan-10 20:30N 35°13' E 139°43'0 0.0
2018-Jan-10 20:00N 35°13' E 139°43'0 0.0
2018-Jan-10 19:30N 35°13' E 139°43'0 0.0
2018-Jan-10 19:00N 35°13' E 139°43'2 4.8
2018-Jan-10 18:30N 35°13' E 139°46'1 2.2
2018-Jan-10 18:01N 35°13' E 139°45'1 2.9
2018-Jan-10 17:30N 35°13' E 139°43'0 0.0
2018-Jan-10 17:01N 35°13' E 139°43'0 0.0
2018-Jan-10 16:30N 35°13' E 139°43'0 0.0
2018-Jan-10 16:01N 35°13' E 139°43'0 0.0
2018-Jan-10 15:30N 35°13' E 139°43'0 0.0
2018-Jan-10 15:00N 35°13' E 139°43'0 0.0
2018-Jan-10 14:30N 35°13' E 139°43'0 0.0
2018-Jan-10 14:00N 35°13' E 139°43'0 0.0
2018-Jan-10 13:31N 35°13' E 139°43'0 0.0
2018-Jan-10 13:00N 35°13' E 139°43'0 0.0
2018-Jan-10 12:30N 35°13' E 139°43'0 0.0
2018-Jan-10 12:01N 35°13' E 139°43'0 0.0
2018-Jan-10 11:30N 35°13' E 139°43'0 0.1
2018-Jan-10 11:00N 35°13' E 139°43'2 3.8
2018-Jan-10 10:30N 35°13' E 139°46'2 3.9
2018-Jan-10 10:00N 35°13' E 139°43'0 0.1
2018-Jan-10 09:30N 35°13' E 139°43'0 0.0
2018-Jan-10 09:01N 35°13' E 139°43'0 0.0
2018-Jan-10 08:31N 35°13' E 139°43'0 0.0
2018-Jan-10 08:01N 35°13' E 139°43'0 0.0
2018-Jan-10 07:30N 35°13' E 139°43'0 0.0
2018-Jan-10 07:01N 35°13' E 139°43'0 0.0
2018-Jan-10 06:30N 35°13' E 139°43'0 0.0
2018-Jan-10 06:01N 35°13' E 139°43'0 0.0
2018-Jan-10 05:30N 35°13' E 139°43'0 0.0
2018-Jan-10 05:00N 35°13' E 139°43'1 2.4
2018-Jan-10 04:30N 35°13' E 139°45'4 7.3
2018-Jan-10 04:00N 35°17' E 139°45'4 8.4
2018-Jan-10 03:30N 35°13' E 139°43'0 0.0
2018-Jan-10 03:01N 35°13' E 139°43'0 0.0
2018-Jan-10 02:31N 35°13' E 139°43'0 0.0
2018-Jan-10 02:00N 35°13' E 139°43'0 0.0
2018-Jan-10 01:30N 35°13' E 139°43'0 0.0
2018-Jan-10 01:00N 35°13' E 139°43'1 1.1
2018-Jan-10 00:30N 35°13' E 139°44'4 8.0
2018-Jan-10 00:01N 35°10' E 139°47'4 7.2
2018-Jan-09 23:31N 35°13' E 139°44'1 1.9
2018-Jan-09 23:01N 35°13' E 139°43'0 0.2
2018-Jan-09 22:30N 35°13' E 139°43'2 4.3
2018-Jan-09 22:00N 35°14' E 139°46'2 4.3
2018-Jan-09 21:31N 35°13' E 139°43'0 0.5
2018-Jan-09 21:00N 35°13' E 139°43'0 0.9
2018-Jan-09 20:31N 35°13' E 139°43'2 3.7
2018-Jan-09 20:00N 35°13' E 139°46'4 8.5
2018-Jan-09 19:30N 35°09' E 139°47'3 5.4
2018-Jan-09 19:01N 35°11' E 139°45'2 4.9
2018-Jan-09 18:30N 35°13' E 139°43'0 0.4
2018-Jan-09 18:00N 35°13' E 139°43'0 0.0
2018-Jan-09 17:30N 35°13' E 139°43'0 0.0
2018-Jan-09 17:01N 35°13' E 139°43'0 0.0
2018-Jan-09 16:31N 35°13' E 139°43'0 0.0
2018-Jan-09 16:00N 35°13' E 139°43'0 0.0
2018-Jan-09 15:30N 35°13' E 139°43'0 0.0
2018-Jan-09 15:01N 35°13' E 139°43'0 0.0
2018-Jan-09 14:30N 35°13' E 139°43'0 0.0
2018-Jan-09 14:00N 35°13' E 139°43'0 0.0
2018-Jan-09 13:30N 35°13' E 139°43'0 0.0
2018-Jan-09 13:00N 35°13' E 139°43'0 0.0
2018-Jan-09 12:29N 35°13' E 139°43'0 0.0
2018-Jan-09 12:01N 35°13' E 139°43'0 0.0
2018-Jan-09 11:29N 35°13' E 139°43'0 0.0
2018-Jan-09 11:00N 35°13' E 139°43'0 0.0
2018-Jan-09 10:30N 35°13' E 139°43'0 0.0
2018-Jan-09 10:00N 35°13' E 139°43'0 0.0
2018-Jan-09 09:30N 35°13' E 139°43'0 0.0
2018-Jan-09 09:01N 35°13' E 139°43'0 0.0
2018-Jan-09 08:29N 35°13' E 139°43'0 0.0
2018-Jan-09 08:00N 35°13' E 139°43'0 0.0
2018-Jan-09 07:30N 35°13' E 139°43'0 0.0
2018-Jan-09 07:00N 35°13' E 139°43'0 0.0
2018-Jan-09 06:30N 35°13' E 139°43'0 0.0
2018-Jan-09 06:00N 35°13' E 139°43'0 0.0
2018-Jan-09 05:31N 35°13' E 139°43'0 0.0
2018-Jan-09 05:00N 35°13' E 139°43'0 0.0
2018-Jan-09 04:30N 35°13' E 139°43'0 0.0
2018-Jan-09 03:58N 35°13' E 139°43'0 0.0
2018-Jan-09 03:30N 35°13' E 139°43'0 0.0
2018-Jan-09 03:00N 35°13' E 139°43'0 0.0
2018-Jan-09 02:31N 35°13' E 139°43'0 0.0
2018-Jan-09 02:00N 35°13' E 139°43'0 0.0
2018-Jan-09 01:30N 35°13' E 139°43'0 0.0
2018-Jan-09 01:00N 35°13' E 139°43'0 0.0
2018-Jan-09 00:30N 35°13' E 139°43'0 0.1
2018-Jan-09 00:00N 35°13' E 139°43'0 0.0
2018-Jan-08 23:30N 35°13' E 139°43'0 0.0
2018-Jan-08 23:00N 35°13' E 139°43'0 0.0
2018-Jan-08 22:30N 35°13' E 139°43'0 0.0
2018-Jan-08 22:00N 35°13' E 139°43'2 4.3
2018-Jan-08 21:30N 35°12' E 139°45'2 3.3
2018-Jan-08 21:00N 35°11' E 139°46'3 6.9
2018-Jan-08 20:30N 35°13' E 139°43'0 0.0
2018-Jan-08 20:00N 35°13' E 139°43'3 7.0
2018-Jan-08 19:31N 35°11' E 139°46'1 1.1
2018-Jan-08 19:00N 35°11' E 139°46'3 6.0
2018-Jan-08 18:30N 35°13' E 139°43'0 0.1
2018-Jan-08 18:00N 35°13' E 139°43'0 0.0
2018-Jan-08 17:30N 35°13' E 139°43'0 0.1
2018-Jan-08 17:00N 35°13' E 139°43'2 3.8
2018-Jan-08 16:30N 35°13' E 139°45'2 3.3
2018-Jan-08 16:00N 35°13' E 139°43'0 0.6
2018-Jan-08 15:30N 35°13' E 139°43'0 0.0
2018-Jan-08 15:00N 35°13' E 139°43'0 0.0
2018-Jan-08 14:30N 35°13' E 139°43'0 0.0
2018-Jan-08 14:00N 35°13' E 139°43'0 0.0
2018-Jan-08 13:30N 35°13' E 139°43'0 0.0
2018-Jan-08 13:00N 35°13' E 139°43'0 0.0
2018-Jan-08 12:30N 35°13' E 139°43'1 3.0
2018-Jan-08 12:00N 35°13' E 139°45'1 3.0
2018-Jan-08 11:30N 35°14' E 139°45'2 4.1
2018-Jan-08 11:00N 35°13' E 139°43'0 0.0
2018-Jan-08 10:30N 35°13' E 139°43'0 0.0
2018-Jan-08 10:00N 35°13' E 139°43'0 0.0
2018-Jan-08 09:30N 35°13' E 139°43'0 0.0
2018-Jan-08 09:00N 35°13' E 139°43'0 0.0
2018-Jan-08 08:30N 35°13' E 139°43'0 0.0
2018-Jan-08 08:00N 35°13' E 139°43'2 4.3
2018-Jan-08 07:30N 35°13' E 139°46'0 0.4
2018-Jan-08 07:00N 35°13' E 139°46'3 6.4
2018-Jan-08 06:30N 35°10' E 139°47'4 9.0
2018-Jan-08 06:00N 35°13' E 139°43'  

Dump ship's entire track history